createdAt,value
2022-08-31T00:01:33.268Z,20.63
2022-08-31T00:04:06.590Z,20.61
2022-08-31T00:06:36.446Z,20.61
2022-08-31T00:09:07.015Z,20.59
2022-08-31T00:11:36.213Z,20.58
2022-08-31T00:14:13.118Z,20.58
2022-08-31T00:16:46.296Z,20.56
2022-08-31T00:19:15.034Z,20.55
2022-08-31T00:21:44.725Z,20.53
2022-08-31T00:24:14.331Z,20.50
2022-08-31T00:26:42.994Z,20.48
2022-08-31T00:29:12.382Z,20.45
2022-08-31T00:31:41.024Z,20.43
2022-08-31T00:34:10.726Z,20.39
2022-08-31T00:36:40.164Z,20.35
2022-08-31T00:39:08.983Z,20.34
2022-08-31T00:41:39.442Z,20.29
2022-08-31T00:44:11.101Z,20.27
2022-08-31T00:46:41.648Z,20.24
2022-08-31T00:49:14.665Z,20.22
2022-08-31T00:51:48.370Z,20.19
2022-08-31T00:54:21.491Z,20.16
2022-08-31T00:56:50.489Z,20.12
2022-08-31T00:59:21.561Z,20.12
2022-08-31T01:01:50.094Z,20.08
2022-08-31T01:04:20.116Z,20.06
2022-08-31T01:06:50.188Z,20.02
2022-08-31T01:09:20.913Z,20.01
2022-08-31T01:11:51.012Z,19.98
2022-08-31T01:14:19.801Z,19.94
2022-08-31T01:16:52.401Z,19.91
2022-08-31T01:19:29.806Z,19.87
2022-08-31T01:22:09.001Z,19.85
2022-08-31T01:24:42.933Z,19.83
2022-08-31T01:27:13.687Z,19.79
2022-08-31T01:29:42.131Z,19.79
2022-08-31T01:32:10.594Z,19.76
2022-08-31T01:34:39.002Z,19.73
2022-08-31T01:37:07.583Z,19.70
2022-08-31T01:39:35.970Z,19.68
2022-08-31T01:42:06.161Z,19.64
2022-08-31T01:44:35.066Z,19.59
2022-08-31T01:47:03.459Z,19.57
2022-08-31T01:49:31.929Z,19.56
2022-08-31T01:52:00.322Z,19.53
2022-08-31T01:54:28.773Z,19.52
2022-08-31T01:56:57.885Z,19.50
2022-08-31T01:59:50.966Z,19.47
2022-08-31T02:02:39.355Z,19.44
2022-08-31T02:05:11.992Z,19.42
2022-08-31T02:07:40.342Z,19.39
2022-08-31T02:10:09.761Z,19.35
2022-08-31T02:12:38.485Z,19.32
2022-08-31T02:15:11.487Z,19.30
2022-08-31T02:17:40.370Z,19.27
2022-08-31T02:20:11.534Z,19.25
2022-08-31T02:22:40.534Z,19.24
2022-08-31T02:25:12.033Z,19.23
2022-08-31T02:27:40.401Z,19.20
2022-08-31T02:30:15.524Z,19.20
2022-08-31T02:32:43.908Z,19.18
2022-08-31T02:35:12.864Z,19.16
2022-08-31T02:37:41.385Z,19.16
2022-08-31T02:40:12.241Z,19.15
2022-08-31T02:42:53.366Z,19.14
2022-08-31T02:45:26.884Z,19.13
2022-08-31T02:48:01.655Z,19.14
2022-08-31T02:50:39.682Z,19.13
2022-08-31T02:53:08.485Z,19.12
2022-08-31T02:55:37.143Z,19.10
2022-08-31T02:58:06.694Z,19.09
2022-08-31T03:00:36.905Z,19.08
2022-08-31T03:03:06.029Z,19.08
2022-08-31T03:05:34.486Z,19.06
2022-08-31T03:08:03.154Z,19.05
2022-08-31T03:10:32.042Z,19.03
2022-08-31T03:13:00.474Z,19.01
2022-08-31T03:15:29.805Z,18.99
2022-08-31T03:17:59.825Z,18.96
2022-08-31T03:20:29.565Z,18.95
2022-08-31T03:23:01.985Z,18.93
2022-08-31T03:25:32.500Z,18.92
2022-08-31T03:28:01.369Z,18.90
2022-08-31T03:30:31.519Z,18.89
2022-08-31T03:33:05.863Z,18.87
2022-08-31T03:35:35.789Z,18.86
2022-08-31T03:38:05.416Z,18.84
2022-08-31T03:40:34.314Z,18.83
2022-08-31T03:43:04.943Z,18.82
2022-08-31T03:45:33.502Z,18.80
2022-08-31T03:48:01.881Z,18.79
2022-08-31T03:50:32.068Z,18.77
2022-08-31T03:53:09.351Z,18.72
2022-08-31T03:55:40.436Z,18.69
2022-08-31T03:58:11.429Z,18.65
2022-08-31T04:00:40.222Z,18.64
2022-08-31T04:03:20.294Z,18.62
2022-08-31T04:06:19.355Z,18.60
2022-08-31T04:09:06.488Z,18.57
2022-08-31T04:11:57.690Z,18.54
2022-08-31T04:14:55.406Z,18.51
2022-08-31T04:17:46.954Z,18.48
2022-08-31T04:20:41.533Z,18.45
2022-08-31T04:23:11.355Z,18.41
2022-08-31T04:25:47.593Z,18.40
2022-08-31T04:28:15.958Z,18.37
2022-08-31T04:30:48.397Z,18.35
2022-08-31T04:33:18.608Z,18.32
2022-08-31T04:35:47.115Z,18.29
2022-08-31T04:38:16.870Z,18.26
2022-08-31T04:40:47.043Z,18.23
2022-08-31T04:43:15.542Z,18.20
2022-08-31T04:45:44.604Z,18.19
2022-08-31T04:48:14.934Z,18.16
2022-08-31T04:50:44.338Z,18.13
2022-08-31T04:53:13.081Z,18.12
2022-08-31T04:55:43.807Z,18.09
2022-08-31T04:58:15.210Z,18.07
2022-08-31T05:00:44.314Z,18.04
2022-08-31T05:03:12.716Z,18.01
2022-08-31T05:05:42.006Z,17.99
2022-08-31T05:08:10.423Z,17.98
2022-08-31T05:10:40.516Z,17.96
2022-08-31T05:13:10.305Z,17.96
2022-08-31T05:15:42.757Z,17.94
2022-08-31T05:18:14.045Z,17.95
2022-08-31T05:20:49.403Z,17.93
2022-08-31T05:23:18.629Z,17.92
2022-08-31T05:25:47.130Z,17.91
2022-08-31T05:28:23.432Z,17.89
2022-08-31T05:30:51.926Z,17.88
2022-08-31T05:33:32.759Z,17.87
2022-08-31T05:36:03.010Z,17.87
2022-08-31T05:38:31.506Z,17.86
2022-08-31T05:41:00.866Z,17.85
2022-08-31T05:43:30.720Z,17.84
2022-08-31T05:45:59.408Z,17.84
2022-08-31T05:48:33.486Z,17.83
2022-08-31T05:51:03.163Z,17.83
2022-08-31T05:53:32.050Z,17.83
2022-08-31T05:56:02.764Z,17.82
2022-08-31T05:58:34.342Z,17.82
2022-08-31T06:01:02.763Z,17.83
2022-08-31T06:03:51.080Z,17.82
2022-08-31T06:06:19.465Z,17.82
2022-08-31T06:08:47.887Z,17.83
2022-08-31T06:11:19.296Z,17.84
2022-08-31T06:13:52.463Z,17.85
2022-08-31T06:16:21.613Z,17.87
2022-08-31T06:18:50.888Z,17.87
2022-08-31T06:21:23.201Z,17.88
2022-08-31T06:23:53.692Z,17.88
2022-08-31T06:26:26.592Z,17.88
2022-08-31T06:28:59.875Z,17.89
2022-08-31T06:31:32.916Z,17.91
2022-08-31T06:34:02.775Z,17.91
2022-08-31T06:37:03.269Z,17.92
2022-08-31T06:39:34.899Z,17.93
2022-08-31T06:42:29.211Z,17.94
2022-08-31T06:45:14.351Z,17.97
2022-08-31T06:47:59.480Z,17.98
2022-08-31T06:50:29.017Z,18.00
2022-08-31T06:52:58.079Z,18.03
2022-08-31T06:55:39.741Z,18.06
2022-08-31T06:58:26.669Z,18.08
2022-08-31T07:01:32.613Z,18.12
2022-08-31T07:04:20.696Z,18.16
2022-08-31T07:06:49.079Z,18.20
2022-08-31T07:09:18.226Z,18.25
2022-08-31T07:11:49.629Z,18.30
2022-08-31T07:14:21.919Z,18.35
2022-08-31T07:16:53.786Z,18.42
2022-08-31T07:19:23.298Z,18.47
2022-08-31T07:21:54.476Z,18.53
2022-08-31T07:24:25.741Z,18.58
2022-08-31T07:26:57.925Z,18.63
2022-08-31T07:29:37.606Z,18.70
2022-08-31T07:32:08.401Z,18.77
2022-08-31T07:34:37.767Z,18.82
2022-08-31T07:37:41.141Z,18.88
2022-08-31T07:40:28.692Z,18.94
2022-08-31T07:42:57.808Z,18.98
2022-08-31T07:45:30.228Z,19.03
2022-08-31T07:48:02.088Z,19.07
2022-08-31T07:50:44.831Z,19.10
2022-08-31T07:53:28.823Z,19.14
2022-08-31T07:56:25.636Z,19.18
2022-08-31T07:59:11.199Z,19.21
2022-08-31T08:01:41.716Z,19.24
2022-08-31T08:04:18.444Z,19.27
2022-08-31T08:07:17.423Z,19.29
2022-08-31T08:10:14.995Z,19.31
2022-08-31T08:12:58.167Z,19.33
2022-08-31T08:15:37.317Z,19.36
2022-08-31T08:18:26.882Z,19.38
2022-08-31T08:21:00.957Z,19.41
2022-08-31T08:23:31.117Z,19.42
2022-08-31T08:26:21.301Z,19.44
2022-08-31T08:29:10.500Z,19.47
2022-08-31T08:31:43.723Z,19.50
2022-08-31T08:34:12.751Z,19.53
2022-08-31T08:36:42.685Z,19.58
2022-08-31T08:39:13.169Z,19.64
2022-08-31T08:41:47.662Z,19.69
2022-08-31T08:44:18.819Z,19.73
2022-08-31T08:46:54.801Z,19.80
2022-08-31T08:49:39.767Z,19.87
2022-08-31T08:52:17.068Z,19.94
2022-08-31T08:54:49.302Z,20.02
2022-08-31T08:57:21.830Z,20.08
2022-08-31T08:59:54.560Z,20.12
2022-08-31T09:02:30.747Z,20.17
2022-08-31T09:05:11.074Z,20.19
2022-08-31T09:08:19.997Z,20.22
2022-08-31T09:11:03.129Z,20.26
2022-08-31T09:13:39.262Z,20.28
2022-08-31T09:16:20.615Z,20.31
2022-08-31T09:18:53.795Z,20.37
2022-08-31T09:21:27.280Z,20.43
2022-08-31T09:24:03.464Z,20.50
2022-08-31T09:27:00.173Z,20.59
2022-08-31T09:29:45.031Z,20.69
2022-08-31T09:32:23.187Z,20.75
2022-08-31T09:34:58.976Z,20.79
2022-08-31T09:37:33.144Z,20.86
2022-08-31T09:40:15.730Z,20.94
2022-08-31T09:42:47.456Z,21.01
2022-08-31T09:45:38.704Z,21.07
2022-08-31T09:48:10.341Z,21.14
2022-08-31T09:50:44.201Z,21.20
2022-08-31T09:53:39.191Z,21.27
2022-08-31T09:56:15.433Z,21.36
2022-08-31T09:58:47.368Z,21.43
2022-08-31T10:01:20.519Z,21.51
2022-08-31T10:03:50.303Z,21.58
2022-08-31T10:06:43.984Z,21.67
2022-08-31T10:09:28.489Z,21.75
2022-08-31T10:12:04.226Z,21.83
2022-08-31T10:14:41.672Z,21.90
2022-08-31T10:17:16.401Z,22.01
2022-08-31T10:19:53.251Z,22.08
2022-08-31T10:22:31.215Z,22.19
2022-08-31T10:25:14.262Z,22.26
2022-08-31T10:27:49.654Z,22.35
2022-08-31T10:30:25.117Z,22.46
2022-08-31T10:32:58.831Z,22.56
2022-08-31T10:35:37.265Z,22.69
2022-08-31T10:38:21.123Z,22.78
2022-08-31T10:40:52.732Z,22.88
2022-08-31T10:43:25.520Z,22.98
2022-08-31T10:45:55.151Z,23.08
2022-08-31T10:48:26.239Z,23.18
2022-08-31T10:51:05.906Z,23.29
2022-08-31T10:53:47.178Z,23.38
2022-08-31T10:56:23.971Z,23.47
2022-08-31T10:59:03.410Z,23.57
2022-08-31T11:01:42.945Z,23.66
2022-08-31T11:04:29.777Z,23.76
2022-08-31T11:07:04.503Z,23.82
2022-08-31T11:09:43.295Z,23.84
2022-08-31T11:12:21.499Z,23.88
2022-08-31T11:15:28.414Z,24.01
2022-08-31T11:18:13.007Z,24.08
2022-08-31T11:21:04.292Z,24.18
2022-08-31T11:23:50.355Z,24.29
2022-08-31T11:26:52.863Z,24.43
2022-08-31T11:29:41.491Z,24.54
2022-08-31T11:32:21.100Z,24.60
2022-08-31T11:34:53.558Z,24.67
2022-08-31T11:37:52.123Z,24.69
2022-08-31T11:41:12.022Z,24.71
2022-08-31T11:43:46.951Z,24.70
2022-08-31T11:46:53.086Z,24.75
2022-08-31T11:49:47.836Z,24.83
2022-08-31T11:52:38.410Z,24.93
2022-08-31T11:55:23.186Z,25.05
2022-08-31T11:58:25.891Z,25.08
2022-08-31T12:01:02.804Z,25.05
2022-08-31T12:03:43.092Z,25.01
2022-08-31T12:06:51.265Z,24.96
2022-08-31T12:09:33.264Z,24.94
2022-08-31T12:12:11.574Z,24.92
2022-08-31T12:14:50.197Z,24.89
2022-08-31T12:17:27.043Z,24.87
2022-08-31T12:20:02.424Z,24.82
2022-08-31T12:23:24.428Z,24.80
2022-08-31T12:26:20.852Z,24.78
2022-08-31T12:29:05.457Z,24.79
2022-08-31T12:31:35.672Z,24.82
2022-08-31T12:34:10.864Z,24.85
2022-08-31T12:36:39.306Z,24.93
2022-08-31T12:39:10.719Z,25.06
2022-08-31T12:41:51.558Z,25.21
2022-08-31T12:44:22.466Z,25.40
2022-08-31T12:47:02.175Z,25.54
2022-08-31T12:49:50.565Z,25.68
2022-08-31T12:52:38.297Z,25.79
2022-08-31T12:55:23.492Z,25.85
2022-08-31T12:58:03.441Z,25.87
2022-08-31T13:00:35.092Z,25.86
2022-08-31T13:03:16.345Z,25.81
2022-08-31T13:06:00.936Z,25.76
2022-08-31T13:08:29.680Z,25.75
2022-08-31T13:11:14.353Z,25.79
2022-08-31T13:13:42.934Z,25.84
2022-08-31T13:16:13.789Z,25.91
2022-08-31T13:18:42.321Z,25.99
2022-08-31T13:21:11.015Z,26.12
2022-08-31T13:23:41.083Z,26.27
2022-08-31T13:26:19.166Z,26.41
2022-08-31T13:28:51.303Z,26.45
2022-08-31T13:31:22.788Z,26.44
2022-08-31T13:33:53.084Z,26.37
2022-08-31T13:36:31.937Z,26.25
2022-08-31T13:39:02.818Z,26.14
2022-08-31T13:41:36.393Z,26.04
2022-08-31T13:44:09.802Z,25.96
2022-08-31T13:46:44.610Z,25.88
2022-08-31T13:49:30.924Z,25.82
2022-08-31T13:52:00.081Z,25.83
2022-08-31T13:54:31.475Z,25.82
2022-08-31T13:57:19.552Z,25.75
2022-08-31T13:59:49.341Z,25.71
2022-08-31T14:02:36.985Z,25.66
2022-08-31T14:05:08.596Z,25.64
2022-08-31T14:07:56.285Z,25.58
2022-08-31T14:10:27.346Z,25.69
2022-08-31T14:12:59.912Z,25.88
2022-08-31T14:15:36.249Z,26.14
2022-08-31T14:18:27.967Z,26.40
2022-08-31T14:21:28.073Z,26.56
2022-08-31T14:24:01.083Z,26.69
2022-08-31T14:26:32.608Z,26.78
2022-08-31T14:29:10.398Z,26.83
2022-08-31T14:31:44.363Z,26.88
2022-08-31T14:34:25.300Z,26.87
2022-08-31T14:36:57.530Z,26.85
2022-08-31T14:39:31.190Z,26.82
2022-08-31T14:42:02.586Z,26.80
2022-08-31T14:44:37.521Z,26.76
2022-08-31T14:47:06.463Z,26.72
2022-08-31T14:49:36.598Z,26.67
2022-08-31T14:52:06.827Z,26.62
2022-08-31T14:54:36.977Z,26.57
2022-08-31T14:57:12.431Z,26.56
2022-08-31T14:59:46.667Z,26.57
2022-08-31T15:02:21.204Z,26.67
2022-08-31T15:04:50.293Z,26.76
2022-08-31T15:07:20.059Z,26.82
2022-08-31T15:09:50.295Z,26.87
2022-08-31T15:12:19.228Z,26.85
2022-08-31T15:14:49.792Z,26.80
2022-08-31T15:17:20.427Z,26.76
2022-08-31T15:19:55.123Z,26.67
2022-08-31T15:22:26.208Z,26.59
2022-08-31T15:24:56.084Z,26.61
2022-08-31T15:27:31.008Z,26.60
2022-08-31T15:30:08.038Z,26.67
2022-08-31T15:32:45.230Z,26.81
2022-08-31T15:35:18.077Z,27.00
2022-08-31T15:37:56.232Z,27.17
2022-08-31T15:40:25.733Z,27.26
2022-08-31T15:42:58.025Z,27.25
2022-08-31T15:45:30.657Z,27.29
2022-08-31T15:48:17.718Z,27.39
2022-08-31T15:50:52.522Z,27.52
2022-08-31T15:53:27.303Z,27.56
2022-08-31T15:55:56.396Z,27.63
2022-08-31T15:58:26.046Z,27.71
2022-08-31T16:00:55.964Z,27.82
2022-08-31T16:03:24.328Z,27.93
2022-08-31T16:05:54.095Z,28.04
2022-08-31T16:08:28.475Z,28.14
2022-08-31T16:10:56.951Z,28.25
2022-08-31T16:13:25.330Z,28.32
2022-08-31T16:15:55.062Z,28.37
2022-08-31T16:18:24.713Z,28.38
2022-08-31T16:20:53.076Z,28.40
2022-08-31T16:23:22.041Z,28.42
2022-08-31T16:25:50.466Z,28.41
2022-08-31T16:28:20.002Z,28.42
2022-08-31T16:30:48.928Z,28.42
2022-08-31T16:33:21.474Z,28.41
2022-08-31T16:35:50.153Z,28.41
2022-08-31T16:38:19.353Z,28.38
2022-08-31T16:40:47.826Z,28.39
2022-08-31T16:43:16.263Z,28.40
2022-08-31T16:45:44.729Z,28.40
2022-08-31T16:48:30.608Z,28.36
2022-08-31T16:51:01.986Z,28.29
2022-08-31T16:53:31.609Z,28.24
2022-08-31T16:56:00.446Z,28.16
2022-08-31T16:58:50.489Z,28.06
2022-08-31T17:01:20.699Z,27.94
2022-08-31T17:03:51.451Z,27.84
2022-08-31T17:06:21.149Z,27.69
2022-08-31T17:08:53.681Z,27.51
2022-08-31T17:11:24.775Z,27.36
2022-08-31T17:13:58.193Z,27.17
2022-08-31T17:16:28.593Z,27.00
2022-08-31T17:18:59.212Z,26.82
2022-08-31T17:21:31.595Z,26.66
2022-08-31T17:24:01.977Z,26.51
2022-08-31T17:26:33.622Z,26.36
2022-08-31T17:29:05.268Z,26.23
2022-08-31T17:31:36.656Z,26.10
2022-08-31T17:34:05.105Z,25.95
2022-08-31T17:36:37.550Z,25.82
2022-08-31T17:39:07.133Z,25.70
2022-08-31T17:41:36.183Z,25.60
2022-08-31T17:44:05.548Z,25.51
2022-08-31T17:46:33.971Z,25.43
2022-08-31T17:49:02.457Z,25.33
2022-08-31T17:51:36.085Z,25.23
2022-08-31T17:54:08.519Z,25.14
2022-08-31T17:56:47.415Z,25.05
2022-08-31T17:59:18.394Z,24.97
2022-08-31T18:01:48.796Z,24.88
2022-08-31T18:04:18.487Z,24.81
2022-08-31T18:06:51.573Z,24.73
2022-08-31T18:09:22.724Z,24.65
2022-08-31T18:11:52.601Z,24.58
2022-08-31T18:14:25.224Z,24.50
2022-08-31T18:16:55.470Z,24.44
2022-08-31T18:19:27.554Z,24.36
2022-08-31T18:21:58.181Z,24.28
2022-08-31T18:24:27.703Z,24.22
2022-08-31T18:26:58.007Z,24.14
2022-08-31T18:29:26.669Z,24.05
2022-08-31T18:31:56.720Z,23.98
2022-08-31T18:34:26.680Z,23.92
2022-08-31T18:36:55.435Z,23.87
2022-08-31T18:39:49.995Z,23.81
2022-08-31T18:42:33.008Z,23.76
2022-08-31T18:45:19.900Z,23.71
2022-08-31T18:48:20.720Z,23.65
2022-08-31T18:50:44.190Z,23.60
2022-08-31T18:53:15.466Z,23.54
2022-08-31T18:55:56.616Z,23.50
2022-08-31T18:58:24.946Z,23.45
2022-08-31T19:00:57.154Z,23.42
2022-08-31T19:03:27.309Z,23.38
2022-08-31T19:05:56.503Z,23.34
2022-08-31T19:08:25.336Z,23.30
2022-08-31T19:10:58.053Z,23.26
2022-08-31T19:13:30.309Z,23.22
2022-08-31T19:16:02.130Z,23.20
2022-08-31T19:18:32.170Z,23.16
2022-08-31T19:21:00.589Z,23.12
2022-08-31T19:23:29.313Z,23.09
2022-08-31T19:26:00.677Z,23.06
2022-08-31T19:28:29.074Z,23.02
2022-08-31T19:30:57.430Z,22.98
2022-08-31T19:33:26.839Z,22.93
2022-08-31T19:36:03.468Z,22.90
2022-08-31T19:38:33.015Z,22.85
2022-08-31T19:41:04.189Z,22.80
2022-08-31T19:43:56.107Z,22.75
2022-08-31T19:46:26.152Z,22.69
2022-08-31T19:48:59.736Z,22.65
2022-08-31T19:51:29.995Z,22.58
2022-08-31T19:53:59.156Z,22.54
2022-08-31T19:56:31.017Z,22.49
2022-08-31T19:59:00.290Z,22.44
2022-08-31T20:01:33.553Z,22.39
2022-08-31T20:04:04.102Z,22.34
2022-08-31T20:06:32.683Z,22.30
2022-08-31T20:09:01.270Z,22.26
2022-08-31T20:11:32.129Z,22.21
2022-08-31T20:14:01.383Z,22.17
2022-08-31T20:16:36.068Z,22.12
2022-08-31T20:19:05.913Z,22.07
2022-08-31T20:21:35.610Z,22.03
2022-08-31T20:24:07.629Z,22.00
2022-08-31T20:26:47.496Z,21.93
2022-08-31T20:29:21.077Z,21.88
2022-08-31T20:31:52.336Z,21.83
2022-08-31T20:34:23.266Z,21.80
2022-08-31T20:36:59.847Z,21.75
2022-08-31T20:39:31.139Z,21.72
2022-08-31T20:42:03.217Z,21.68
2022-08-31T20:44:35.495Z,21.65
2022-08-31T20:47:24.037Z,21.61
2022-08-31T20:49:55.724Z,21.58
2022-08-31T20:52:26.554Z,21.54
2022-08-31T20:55:00.680Z,21.51
2022-08-31T20:57:34.478Z,21.46
2022-08-31T21:00:04.944Z,21.44
2022-08-31T21:02:34.253Z,21.39
2022-08-31T21:05:34.362Z,21.36
2022-08-31T21:07:53.213Z,21.31
2022-08-31T21:10:37.972Z,21.26
2022-08-31T21:13:13.428Z,21.23
2022-08-31T21:15:44.199Z,21.19
2022-08-31T21:18:17.239Z,21.15
2022-08-31T21:20:46.320Z,21.09
2022-08-31T21:23:15.198Z,21.07
2022-08-31T21:25:45.333Z,21.02
2022-08-31T21:28:17.164Z,20.98
2022-08-31T21:30:47.093Z,20.94
2022-08-31T21:33:15.670Z,20.90
2022-08-31T21:35:44.035Z,20.87
2022-08-31T21:38:12.860Z,20.84
2022-08-31T21:40:48.155Z,20.82
2022-08-31T21:43:18.132Z,20.81
2022-08-31T21:45:46.652Z,20.77
2022-08-31T21:48:15.042Z,20.75
2022-08-31T21:50:43.961Z,20.71
2022-08-31T21:53:13.022Z,20.70
2022-08-31T21:55:41.411Z,20.67
2022-08-31T21:58:10.715Z,20.65
2022-08-31T22:00:42.099Z,20.61
2022-08-31T22:03:12.164Z,20.59
2022-08-31T22:05:43.449Z,20.56
2022-08-31T22:08:11.923Z,20.53
2022-08-31T22:10:41.901Z,20.51
2022-08-31T22:13:12.396Z,20.50
2022-08-31T22:15:43.297Z,20.47
2022-08-31T22:18:46.414Z,20.45
2022-08-31T22:21:00.462Z,20.44
2022-08-31T22:23:29.301Z,20.42
2022-08-31T22:25:58.017Z,20.39
2022-08-31T22:28:27.521Z,20.37
2022-08-31T22:30:57.322Z,20.33
2022-08-31T22:33:25.657Z,20.29
2022-08-31T22:35:54.558Z,20.25
2022-08-31T22:38:22.894Z,20.21
2022-08-31T22:40:51.802Z,20.16
2022-08-31T22:43:20.208Z,20.11
2022-08-31T22:45:49.457Z,20.08
2022-08-31T22:48:19.324Z,20.03
2022-08-31T22:50:47.871Z,19.99
2022-08-31T22:53:16.226Z,19.95
2022-08-31T22:55:44.624Z,19.92
2022-08-31T22:58:13.665Z,19.88
2022-08-31T23:00:45.372Z,19.84
2022-08-31T23:03:15.089Z,19.82
2022-08-31T23:05:45.006Z,19.79
2022-08-31T23:08:14.830Z,19.78
2022-08-31T23:10:44.456Z,19.77
2022-08-31T23:13:12.767Z,19.75
2022-08-31T23:15:41.368Z,19.74
2022-08-31T23:18:10.462Z,19.72
2022-08-31T23:20:41.026Z,19.71
2022-08-31T23:23:11.046Z,19.69
2022-08-31T23:25:40.903Z,19.67
2022-08-31T23:28:09.695Z,19.66
2022-08-31T23:30:40.160Z,19.66
2022-08-31T23:33:08.573Z,19.64
2022-08-31T23:35:37.214Z,19.61
2022-08-31T23:38:05.573Z,19.59
2022-08-31T23:40:35.336Z,19.57
2022-08-31T23:43:03.895Z,19.56
2022-08-31T23:45:33.237Z,19.54
2022-08-31T23:48:01.637Z,19.51
2022-08-31T23:50:30.063Z,19.51
2022-08-31T23:52:58.421Z,19.47
2022-08-31T23:55:29.001Z,19.41
2022-08-31T23:57:59.019Z,19.38
